createdAt,value
2023-05-21T00:00:56.380Z,11.00
2023-05-21T00:03:27.321Z,11.00
2023-05-21T00:05:55.685Z,11.10
2023-05-21T00:08:24.078Z,11.00
2023-05-21T00:10:52.177Z,11.00
2023-05-21T00:13:20.240Z,11.00
2023-05-21T00:15:48.254Z,11.00
2023-05-21T00:18:16.396Z,10.90
2023-05-21T00:20:45.799Z,10.90
2023-05-21T00:23:14.266Z,10.90
2023-05-21T00:25:42.283Z,10.90
2023-05-21T00:28:10.348Z,10.90
2023-05-21T00:30:38.358Z,10.80
2023-05-21T00:33:06.467Z,10.90
2023-05-21T00:35:34.842Z,10.90
2023-05-21T00:38:04.637Z,10.90
2023-05-21T00:40:32.751Z,10.90
2023-05-21T00:43:00.853Z,10.90
2023-05-21T00:45:29.606Z,10.90
2023-05-21T00:47:57.922Z,11.00
2023-05-21T00:50:26.303Z,10.90
2023-05-21T00:52:54.489Z,10.90
2023-05-21T00:55:24.018Z,10.90
2023-05-21T00:57:52.119Z,10.90
2023-05-21T01:00:20.895Z,10.90
2023-05-21T01:02:49.963Z,10.90
2023-05-21T01:05:18.326Z,10.80
2023-05-21T01:07:46.748Z,10.90
2023-05-21T01:10:14.932Z,10.80
2023-05-21T01:12:46.893Z,10.80
2023-05-21T01:15:15.561Z,10.80
2023-05-21T01:17:46.175Z,10.70
2023-05-21T01:20:18.116Z,10.70
2023-05-21T01:22:52.960Z,10.70
2023-05-21T01:25:21.713Z,10.60
2023-05-21T01:27:49.918Z,10.70
2023-05-21T01:30:19.200Z,10.60
2023-05-21T01:32:54.579Z,10.60
2023-05-21T01:35:26.620Z,10.50
2023-05-21T01:38:04.403Z,10.50
2023-05-21T01:40:38.244Z,10.50
2023-05-21T01:43:08.274Z,10.40
2023-05-21T01:45:40.561Z,10.50
2023-05-21T01:48:10.162Z,10.40
2023-05-21T01:50:39.842Z,10.40
2023-05-21T01:53:09.225Z,10.40
2023-05-21T01:55:39.571Z,10.30
2023-05-21T01:58:07.783Z,10.40
2023-05-21T02:00:35.818Z,10.40
2023-05-21T02:03:04.009Z,10.30
2023-05-21T02:05:32.085Z,10.30
2023-05-21T02:08:01.478Z,10.40
2023-05-21T02:10:30.850Z,10.40
2023-05-21T02:12:59.336Z,10.40
2023-05-21T02:15:27.515Z,10.40
2023-05-21T02:17:55.773Z,10.40
2023-05-21T02:20:24.285Z,10.40
2023-05-21T02:22:52.318Z,10.40
2023-05-21T02:25:21.096Z,10.40
2023-05-21T02:27:53.514Z,10.30
2023-05-21T02:30:21.828Z,10.30
2023-05-21T02:32:50.772Z,10.30
2023-05-21T02:35:19.017Z,10.50
2023-05-21T02:37:47.110Z,10.20
2023-05-21T02:40:15.620Z,10.10
2023-05-21T02:42:43.861Z,10.10
2023-05-21T02:45:13.990Z,10.10
2023-05-21T02:47:42.159Z,10.10
2023-05-21T02:50:10.933Z,10.10
2023-05-21T02:52:38.989Z,10.00
2023-05-21T02:55:08.069Z,10.00
2023-05-21T02:57:36.205Z,10.00
2023-05-21T03:00:06.069Z,10.00
2023-05-21T03:02:35.803Z,10.00
2023-05-21T03:05:04.033Z,10.00
2023-05-21T03:07:32.485Z,9.90
2023-05-21T03:10:00.615Z,10.00
2023-05-21T03:12:28.625Z,10.00
2023-05-21T03:14:56.625Z,9.90
2023-05-21T03:17:24.706Z,10.00
2023-05-21T03:19:54.746Z,9.90
2023-05-21T03:22:22.844Z,9.90
2023-05-21T03:24:50.829Z,9.90
2023-05-21T03:27:18.857Z,9.90
2023-05-21T03:29:46.926Z,10.00
2023-05-21T03:32:15.300Z,10.00
2023-05-21T03:34:43.413Z,10.20
2023-05-21T03:37:12.819Z,9.90
2023-05-21T03:39:40.873Z,10.00
2023-05-21T03:42:08.899Z,10.00
2023-05-21T03:44:36.929Z,10.00
2023-05-21T03:47:05.020Z,10.20
2023-05-21T03:49:33.051Z,10.10
2023-05-21T03:52:01.122Z,10.10
2023-05-21T03:54:30.580Z,10.10
2023-05-21T03:56:59.872Z,10.20
2023-05-21T03:59:28.094Z,10.20
2023-05-21T04:01:56.063Z,10.30
2023-05-21T04:04:24.216Z,10.30
2023-05-21T04:06:54.274Z,10.30
2023-05-21T04:09:22.542Z,10.30
2023-05-21T04:11:51.997Z,10.20
2023-05-21T04:14:20.024Z,10.40
2023-05-21T04:16:49.165Z,10.40
2023-05-21T04:19:17.364Z,10.30
2023-05-21T04:21:45.915Z,10.40
2023-05-21T04:24:14.027Z,10.50
2023-05-21T04:26:42.211Z,10.50
2023-05-21T04:29:11.628Z,10.60
2023-05-21T04:31:39.660Z,10.60
2023-05-21T04:34:07.937Z,10.70
2023-05-21T04:36:36.169Z,10.70
2023-05-21T04:39:05.625Z,10.80
2023-05-21T04:41:34.769Z,10.80
2023-05-21T04:44:02.836Z,10.90
2023-05-21T04:46:32.368Z,11.20
2023-05-21T04:49:03.024Z,11.00
2023-05-21T04:51:31.313Z,11.10
2023-05-21T04:53:59.659Z,11.30
2023-05-21T04:56:27.727Z,11.20
2023-05-21T04:58:55.975Z,11.30
2023-05-21T05:01:25.578Z,11.40
2023-05-21T05:03:55.152Z,11.40
2023-05-21T05:06:25.786Z,11.50
2023-05-21T05:08:53.923Z,11.50
2023-05-21T05:11:22.409Z,11.60
2023-05-21T05:13:50.745Z,11.60
2023-05-21T05:16:24.951Z,11.70
2023-05-21T05:18:55.186Z,11.70
2023-05-21T05:21:24.600Z,11.80
2023-05-21T05:23:52.739Z,11.90
2023-05-21T05:26:21.436Z,11.90
2023-05-21T05:28:49.476Z,12.00
2023-05-21T05:31:17.667Z,12.10
2023-05-21T05:33:45.685Z,12.10
2023-05-21T05:36:15.286Z,12.10
2023-05-21T05:38:43.270Z,12.20
2023-05-21T05:41:11.328Z,12.30
2023-05-21T05:43:39.428Z,12.40
2023-05-21T05:46:07.519Z,12.50
2023-05-21T05:48:35.688Z,12.60
2023-05-21T05:51:03.813Z,12.70
2023-05-21T05:53:33.294Z,12.80
2023-05-21T05:56:01.364Z,12.80
2023-05-21T05:58:30.620Z,12.90
2023-05-21T06:00:58.675Z,13.10
2023-05-21T06:03:28.126Z,13.20
2023-05-21T06:05:56.556Z,13.30
2023-05-21T06:08:24.689Z,13.40
2023-05-21T06:10:54.134Z,13.50
2023-05-21T06:13:22.251Z,13.60
2023-05-21T06:15:50.459Z,13.70
2023-05-21T06:18:18.636Z,13.80
2023-05-21T06:20:46.707Z,13.90
2023-05-21T06:23:14.741Z,13.90
2023-05-21T06:25:42.850Z,14.10
2023-05-21T06:28:12.306Z,14.20
2023-05-21T06:30:42.514Z,14.20
2023-05-21T06:33:11.343Z,14.30
2023-05-21T06:35:40.277Z,14.30
2023-05-21T06:38:08.292Z,14.50
2023-05-21T06:40:36.597Z,14.60
2023-05-21T06:43:05.297Z,14.80
2023-05-21T06:45:35.071Z,14.90
2023-05-21T06:48:03.451Z,15.10
2023-05-21T06:50:31.563Z,15.20
2023-05-21T06:52:59.680Z,15.30
2023-05-21T06:55:27.696Z,15.50
2023-05-21T06:57:55.839Z,15.60
2023-05-21T07:00:23.929Z,15.70
2023-05-21T07:02:54.295Z,15.90
2023-05-21T07:05:22.526Z,16.00
2023-05-21T07:07:50.688Z,16.10
2023-05-21T07:10:18.902Z,16.20
2023-05-21T07:12:46.918Z,16.30
2023-05-21T07:15:15.023Z,16.50
2023-05-21T07:17:43.125Z,16.50
2023-05-21T07:20:14.383Z,16.60
2023-05-21T07:22:43.052Z,16.80
2023-05-21T07:25:11.690Z,17.00
2023-05-21T07:27:39.785Z,17.10
2023-05-21T07:30:10.261Z,17.20
2023-05-21T07:32:38.379Z,17.40
2023-05-21T07:35:07.771Z,17.60
2023-05-21T07:37:37.274Z,17.80
2023-05-21T07:40:06.447Z,18.00
2023-05-21T07:42:34.900Z,18.20
2023-05-21T07:45:03.375Z,18.20
2023-05-21T07:47:31.638Z,18.40
2023-05-21T07:49:59.826Z,18.50
2023-05-21T07:52:28.003Z,18.70
2023-05-21T07:54:57.479Z,18.70
2023-05-21T07:57:25.530Z,18.90
2023-05-21T07:59:53.644Z,19.00
2023-05-21T08:02:21.943Z,19.00
2023-05-21T08:04:50.097Z,19.20
2023-05-21T08:07:19.882Z,19.50
2023-05-21T08:09:47.950Z,19.70
2023-05-21T08:12:18.900Z,19.90
2023-05-21T08:14:47.126Z,20.10
2023-05-21T08:17:15.171Z,20.20
2023-05-21T08:19:43.252Z,20.30
2023-05-21T08:22:11.351Z,20.40
2023-05-21T08:24:39.415Z,20.60
2023-05-21T08:27:07.798Z,20.50
2023-05-21T08:29:37.262Z,20.40
2023-05-21T08:32:06.140Z,20.80
2023-05-21T08:34:34.368Z,21.50
2023-05-21T08:37:02.598Z,22.40
2023-05-21T08:39:30.691Z,22.90
2023-05-21T08:42:05.725Z,23.40
2023-05-21T08:44:38.966Z,24.50
2023-05-21T08:47:11.036Z,25.10
2023-05-21T08:49:39.270Z,25.90
2023-05-21T08:52:07.987Z,26.20
2023-05-21T08:54:39.733Z,26.90
2023-05-21T08:57:08.659Z,27.00
2023-05-21T08:59:40.124Z,26.60
2023-05-21T09:02:08.753Z,26.70
2023-05-21T09:04:38.907Z,26.50
2023-05-21T09:07:07.903Z,26.50
2023-05-21T09:09:43.051Z,26.60
2023-05-21T09:12:11.302Z,26.90
2023-05-21T09:14:41.951Z,26.70
2023-05-21T09:17:10.109Z,26.70
2023-05-21T09:19:38.230Z,27.10
2023-05-21T09:22:06.530Z,28.00
2023-05-21T09:24:36.278Z,28.40
2023-05-21T09:27:07.965Z,28.50
2023-05-21T09:29:36.396Z,28.40
2023-05-21T09:32:10.065Z,27.90
2023-05-21T09:34:38.158Z,27.90
2023-05-21T09:37:19.927Z,27.30
2023-05-21T09:39:54.942Z,27.30
2023-05-21T09:42:23.335Z,27.30
2023-05-21T09:44:51.513Z,27.10
2023-05-21T09:47:23.968Z,27.30
2023-05-21T09:49:52.150Z,27.20
2023-05-21T09:52:28.198Z,27.00
2023-05-21T09:54:56.302Z,27.30
2023-05-21T09:57:27.705Z,27.40
2023-05-21T09:59:56.001Z,27.80
2023-05-21T10:02:26.833Z,28.20
2023-05-21T10:04:55.311Z,28.20
2023-05-21T10:07:25.974Z,28.60
2023-05-21T10:09:56.681Z,29.20
2023-05-21T10:12:25.685Z,29.10
2023-05-21T10:15:01.151Z,28.80
2023-05-21T10:17:31.608Z,28.20
2023-05-21T10:20:01.599Z,28.10
2023-05-21T10:22:30.186Z,28.30
2023-05-21T10:24:59.930Z,28.50
2023-05-21T10:27:32.331Z,28.40
2023-05-21T10:30:01.323Z,28.00
2023-05-21T10:32:32.600Z,28.20
2023-05-21T10:35:02.035Z,28.40
2023-05-21T10:37:30.554Z,28.00
2023-05-21T10:39:58.802Z,27.80
2023-05-21T10:42:49.800Z,27.30
2023-05-21T10:45:24.706Z,27.40
2023-05-21T10:48:08.051Z,27.00
2023-05-21T10:50:56.480Z,27.20
2023-05-21T10:53:38.434Z,27.10
2023-05-21T10:56:15.670Z,27.30
2023-05-21T10:59:11.756Z,27.50
2023-05-21T11:01:41.749Z,27.80
2023-05-21T11:04:12.341Z,27.60
2023-05-21T11:06:40.463Z,27.20
2023-05-21T11:09:14.628Z,27.00
2023-05-21T11:11:45.189Z,27.00
2023-05-21T11:14:35.017Z,27.50
2023-05-21T11:17:04.339Z,27.90
2023-05-21T11:19:41.543Z,28.50
2023-05-21T11:22:11.572Z,28.60
2023-05-21T11:24:41.710Z,29.00
2023-05-21T11:27:10.297Z,28.90
2023-05-21T11:29:47.567Z,28.60
2023-05-21T11:32:17.452Z,28.80
2023-05-21T11:34:47.898Z,29.10
2023-05-21T11:37:30.192Z,29.10
2023-05-21T11:40:00.069Z,28.90
2023-05-21T11:42:35.514Z,29.00
2023-05-21T11:45:04.949Z,28.80
2023-05-21T11:47:33.575Z,28.60
2023-05-21T11:50:04.951Z,28.10
2023-05-21T11:52:33.826Z,27.80
2023-05-21T11:55:01.975Z,27.40
2023-05-21T11:57:31.819Z,27.20
2023-05-21T12:00:01.806Z,27.00
2023-05-21T12:02:33.789Z,26.90
2023-05-21T12:05:03.290Z,26.70
2023-05-21T12:07:31.674Z,26.50
2023-05-21T12:10:00.078Z,26.40
2023-05-21T12:12:35.538Z,26.40
2023-05-21T12:15:12.507Z,26.50
2023-05-21T12:17:41.173Z,26.60
2023-05-21T12:20:16.600Z,26.80
2023-05-21T12:22:45.631Z,26.90
2023-05-21T12:25:13.747Z,26.90
2023-05-21T12:27:45.023Z,26.70
2023-05-21T12:30:13.616Z,26.80
2023-05-21T12:32:44.425Z,26.80
2023-05-21T12:35:24.193Z,26.60
2023-05-21T12:37:52.648Z,26.30
2023-05-21T12:40:22.257Z,26.20
2023-05-21T12:42:52.149Z,26.20
2023-05-21T12:45:22.785Z,26.10
2023-05-21T12:47:56.176Z,25.90
2023-05-21T12:50:26.262Z,25.60
2023-05-21T12:53:00.309Z,25.50
2023-05-21T12:55:28.671Z,25.30
2023-05-21T12:58:05.396Z,25.20
2023-05-21T13:00:34.632Z,25.10
2023-05-21T13:03:06.337Z,25.10
2023-05-21T13:05:36.342Z,25.00
2023-05-21T13:08:04.650Z,25.00
2023-05-21T13:10:32.879Z,25.00
2023-05-21T13:13:01.758Z,24.90
2023-05-21T13:15:30.018Z,24.80
2023-05-21T13:18:01.169Z,24.80
2023-05-21T13:20:29.645Z,24.80
2023-05-21T13:22:59.239Z,24.70
2023-05-21T13:25:29.644Z,24.80
2023-05-21T13:27:58.993Z,24.80
2023-05-21T13:30:27.225Z,24.80
2023-05-21T13:32:55.856Z,24.80
2023-05-21T13:35:24.029Z,24.90
2023-05-21T13:37:52.294Z,25.00
2023-05-21T13:40:22.107Z,25.10
2023-05-21T13:42:51.069Z,25.20
2023-05-21T13:45:21.385Z,25.40
2023-05-21T13:47:50.155Z,25.50
2023-05-21T13:50:18.688Z,25.70
2023-05-21T13:52:47.304Z,25.80
2023-05-21T13:55:16.851Z,26.00
2023-05-21T13:57:46.971Z,26.20
2023-05-21T14:00:16.318Z,26.40
2023-05-21T14:02:45.334Z,26.90
2023-05-21T14:05:14.057Z,27.20
2023-05-21T14:07:42.870Z,27.40
2023-05-21T14:10:11.736Z,27.30
2023-05-21T14:12:41.012Z,27.60
2023-05-21T14:15:11.941Z,28.00
2023-05-21T14:17:42.591Z,28.20
2023-05-21T14:20:11.749Z,28.40
2023-05-21T14:22:40.151Z,28.30
2023-05-21T14:25:08.899Z,28.70
2023-05-21T14:27:38.442Z,28.90
2023-05-21T14:30:07.911Z,29.10
2023-05-21T14:32:37.698Z,29.20
2023-05-21T14:35:06.912Z,29.30
2023-05-21T14:37:35.375Z,28.80
2023-05-21T14:40:05.554Z,28.70
2023-05-21T14:42:33.685Z,28.80
2023-05-21T14:45:17.557Z,28.80
2023-05-21T14:47:49.078Z,28.80
2023-05-21T14:50:17.990Z,28.60
2023-05-21T14:52:46.419Z,28.60
2023-05-21T14:55:16.863Z,28.60
2023-05-21T14:57:45.430Z,28.90
2023-05-21T15:00:14.593Z,28.60
2023-05-21T15:02:43.054Z,28.80
2023-05-21T15:05:12.885Z,28.80
2023-05-21T15:07:41.049Z,28.70
2023-05-21T15:10:10.672Z,28.70
2023-05-21T15:12:39.190Z,28.80
2023-05-21T15:15:08.177Z,28.70
2023-05-21T15:17:37.000Z,28.80
2023-05-21T15:20:06.008Z,28.90
2023-05-21T15:22:36.162Z,28.90
2023-05-21T15:25:05.601Z,28.90
2023-05-21T15:27:33.881Z,28.90
2023-05-21T15:30:04.848Z,28.80
2023-05-21T15:32:33.063Z,28.70
2023-05-21T15:35:01.482Z,28.50
2023-05-21T15:37:32.325Z,28.30
2023-05-21T15:40:02.084Z,27.90
2023-05-21T15:42:31.911Z,27.80
2023-05-21T15:45:00.172Z,27.70
2023-05-21T15:47:28.400Z,27.50
2023-05-21T15:49:56.553Z,27.40
2023-05-21T15:52:25.622Z,27.20
2023-05-21T15:54:53.820Z,26.90
2023-05-21T15:57:23.282Z,26.60
2023-05-21T15:59:52.533Z,26.40
2023-05-21T16:02:20.964Z,26.10
2023-05-21T16:04:50.010Z,25.90
2023-05-21T16:07:18.274Z,25.80
2023-05-21T16:09:46.448Z,25.60
2023-05-21T16:12:14.786Z,25.50
2023-05-21T16:14:44.466Z,25.40
2023-05-21T16:17:12.714Z,25.30
2023-05-21T16:19:41.034Z,25.20
2023-05-21T16:22:10.715Z,25.20
2023-05-21T16:24:39.286Z,25.20
2023-05-21T16:27:07.512Z,25.20
2023-05-21T16:29:35.807Z,25.20
2023-05-21T16:32:06.280Z,25.20
2023-05-21T16:34:35.721Z,25.20
2023-05-21T16:37:04.012Z,25.30
2023-05-21T16:39:32.237Z,25.40
2023-05-21T16:42:01.221Z,25.40
2023-05-21T16:44:29.471Z,25.50
2023-05-21T16:46:57.765Z,25.50
2023-05-21T16:49:28.064Z,25.50
2023-05-21T16:51:56.428Z,25.40
2023-05-21T16:54:24.536Z,25.50
2023-05-21T16:56:52.682Z,25.40
2023-05-21T16:59:21.129Z,25.40
2023-05-21T17:01:49.766Z,25.20
2023-05-21T17:04:17.981Z,25.10
2023-05-21T17:06:47.565Z,25.00
2023-05-21T17:09:18.063Z,24.80
2023-05-21T17:11:46.910Z,24.60
2023-05-21T17:14:23.334Z,24.40
2023-05-21T17:17:01.255Z,24.20
2023-05-21T17:19:29.518Z,24.00
2023-05-21T17:21:59.574Z,23.90
2023-05-21T17:24:27.998Z,23.90
2023-05-21T17:26:56.336Z,23.80
2023-05-21T17:29:24.558Z,23.70
2023-05-21T17:31:52.921Z,23.70
2023-05-21T17:34:24.776Z,23.60
2023-05-21T17:36:53.040Z,23.50
2023-05-21T17:39:22.905Z,23.40
2023-05-21T17:41:51.711Z,23.30
2023-05-21T17:44:21.613Z,23.20
2023-05-21T17:46:50.808Z,23.10
2023-05-21T17:49:19.513Z,23.00
2023-05-21T17:51:47.980Z,22.90
2023-05-21T17:54:16.225Z,22.80
2023-05-21T17:56:46.679Z,22.70
2023-05-21T17:59:16.133Z,22.60
2023-05-21T18:01:44.423Z,22.50
2023-05-21T18:04:13.306Z,22.40
2023-05-21T18:06:41.606Z,22.30
2023-05-21T18:09:10.621Z,22.30
2023-05-21T18:11:38.921Z,22.20
2023-05-21T18:14:08.466Z,22.20
2023-05-21T18:16:36.865Z,22.00
2023-05-21T18:19:06.791Z,22.00
2023-05-21T18:21:35.576Z,21.90
2023-05-21T18:24:04.485Z,21.80
2023-05-21T18:26:32.783Z,21.70
2023-05-21T18:29:00.891Z,21.50
2023-05-21T18:31:30.602Z,21.50
2023-05-21T18:33:59.488Z,21.30
2023-05-21T18:36:29.113Z,21.30
2023-05-21T18:38:57.639Z,21.20
2023-05-21T18:41:26.421Z,21.20
2023-05-21T18:43:54.623Z,21.10
2023-05-21T18:46:22.867Z,21.10
2023-05-21T18:48:52.506Z,21.00
2023-05-21T18:51:20.815Z,21.00
2023-05-21T18:53:49.506Z,21.00
2023-05-21T18:56:18.206Z,21.00
2023-05-21T18:58:47.655Z,20.90
2023-05-21T19:01:15.938Z,20.90
2023-05-21T19:03:44.254Z,20.90
2023-05-21T19:06:13.884Z,20.90
2023-05-21T19:08:41.996Z,20.80
2023-05-21T19:11:12.128Z,20.80
2023-05-21T19:13:40.492Z,20.80
2023-05-21T19:16:11.063Z,20.70
2023-05-21T19:18:42.050Z,20.70
2023-05-21T19:21:13.254Z,20.60
2023-05-21T19:23:51.828Z,20.60
2023-05-21T19:26:22.483Z,20.50
2023-05-21T19:28:53.648Z,20.50
2023-05-21T19:31:22.550Z,20.40
2023-05-21T19:33:50.992Z,20.40
2023-05-21T19:36:21.415Z,20.40
2023-05-21T19:38:50.266Z,20.30
2023-05-21T19:41:18.809Z,20.30
2023-05-21T19:43:47.368Z,20.20
2023-05-21T19:46:19.103Z,20.20
2023-05-21T19:48:48.337Z,20.10
2023-05-21T19:51:16.947Z,20.10
2023-05-21T19:53:46.624Z,20.10
2023-05-21T19:56:14.961Z,20.00
2023-05-21T19:58:47.127Z,20.00
2023-05-21T20:01:15.846Z,20.00
2023-05-21T20:03:45.034Z,20.00
2023-05-21T20:06:15.365Z,19.90
2023-05-21T20:08:43.645Z,20.00
2023-05-21T20:11:13.268Z,20.00
2023-05-21T20:13:42.541Z,20.00
2023-05-21T20:16:12.794Z,19.90
2023-05-21T20:18:41.790Z,19.90
2023-05-21T20:21:10.613Z,19.90
2023-05-21T20:23:38.899Z,19.70
2023-05-21T20:26:08.022Z,19.60
2023-05-21T20:28:38.224Z,19.60
2023-05-21T20:31:06.932Z,19.50
2023-05-21T20:33:38.737Z,19.40
2023-05-21T20:36:09.164Z,19.30
2023-05-21T20:38:38.251Z,19.20
2023-05-21T20:41:06.587Z,19.10
2023-05-21T20:43:37.513Z,19.00
2023-05-21T20:46:07.754Z,18.90
2023-05-21T20:48:37.838Z,18.80
2023-05-21T20:51:06.879Z,18.70
2023-05-21T20:53:35.079Z,18.60
2023-05-21T20:56:08.188Z,18.60
2023-05-21T20:58:36.606Z,18.50
2023-05-21T21:01:07.482Z,18.50
2023-05-21T21:03:35.933Z,18.40
2023-05-21T21:06:06.410Z,18.50
2023-05-21T21:08:35.290Z,18.30
2023-05-21T21:11:03.501Z,18.30
2023-05-21T21:13:31.610Z,18.30
2023-05-21T21:15:59.927Z,18.30
2023-05-21T21:18:29.784Z,18.30
2023-05-21T21:20:58.237Z,18.30
2023-05-21T21:23:28.950Z,18.30
2023-05-21T21:25:57.852Z,18.30
2023-05-21T21:28:26.087Z,18.30
2023-05-21T21:30:54.404Z,18.30
2023-05-21T21:33:24.332Z,18.30
2023-05-21T21:35:53.945Z,18.30
2023-05-21T21:38:22.222Z,18.30
2023-05-21T21:40:50.610Z,18.20
2023-05-21T21:43:18.724Z,18.20
2023-05-21T21:45:46.832Z,18.10
2023-05-21T21:48:16.536Z,18.00
2023-05-21T21:50:44.940Z,18.00
2023-05-21T21:53:15.043Z,18.00
2023-05-21T21:55:46.059Z,17.90
2023-05-21T21:58:14.147Z,17.90
2023-05-21T22:00:42.606Z,17.90
2023-05-21T22:03:14.285Z,17.80
2023-05-21T22:05:42.876Z,17.80
2023-05-21T22:08:11.422Z,17.80
2023-05-21T22:10:41.173Z,17.80
2023-05-21T22:13:09.583Z,17.80
2023-05-21T22:15:38.493Z,17.80
2023-05-21T22:18:09.613Z,17.80
2023-05-21T22:20:38.417Z,17.80
2023-05-21T22:23:07.330Z,17.80
2023-05-21T22:25:35.402Z,17.80
2023-05-21T22:28:05.205Z,17.80
2023-05-21T22:30:33.364Z,17.70
2023-05-21T22:33:01.775Z,17.70
2023-05-21T22:35:29.964Z,17.70
2023-05-21T22:37:58.729Z,17.60
2023-05-21T22:40:26.864Z,17.60
2023-05-21T22:42:54.977Z,17.50
2023-05-21T22:45:24.660Z,17.60
2023-05-21T22:47:56.667Z,17.50
2023-05-21T22:50:25.357Z,17.50
2023-05-21T22:52:53.788Z,17.40
2023-05-21T22:55:21.949Z,17.30
2023-05-21T22:57:50.090Z,17.30
2023-05-21T23:00:19.213Z,17.30
2023-05-21T23:02:51.400Z,17.20
2023-05-21T23:05:21.255Z,17.20
2023-05-21T23:07:49.519Z,17.10
2023-05-21T23:10:17.828Z,17.10
2023-05-21T23:12:45.872Z,17.10
2023-05-21T23:15:13.971Z,17.00
2023-05-21T23:17:42.060Z,17.00
2023-05-21T23:20:12.358Z,17.00
2023-05-21T23:22:40.501Z,16.90
2023-05-21T23:25:09.957Z,16.80
2023-05-21T23:27:38.061Z,16.70
2023-05-21T23:30:07.160Z,16.70
2023-05-21T23:32:35.422Z,16.60
2023-05-21T23:35:03.837Z,16.60
2023-05-21T23:37:33.292Z,16.60
2023-05-21T23:40:01.363Z,16.60
2023-05-21T23:42:29.562Z,16.60
2023-05-21T23:44:57.681Z,16.60
2023-05-21T23:47:25.923Z,16.50
2023-05-21T23:49:54.026Z,16.50
2023-05-21T23:52:24.092Z,16.50
2023-05-21T23:54:53.621Z,16.50
2023-05-21T23:57:21.695Z,16.40
2023-05-21T23:59:49.829Z,16.40
